Time;durP1;ratioP1;P1;durP2;ratioP2;P2;SDS_P1;SDS_P2;PMS_P1;PMS_P2;Temp;Humidity;BMP_temperature;BMP_pressure;BME280_temperature;BME280_humidity;BME280_pressure;Samples;Min_cycle;Max_cycle;Signal;HPM_P1;HPM_P2
2022/11/12 00:00:35;;;;;;;19.30;14.43;;;;;;;12.65;100.00;103026.47;2071317;28;20192;-67
2022/11/12 00:01:36;;;;;;;18.07;15.40;;;;;;;13.01;100.00;103084.75;2070834;28;20701;-67
2022/11/12 00:02:36;;;;;;;19.20;14.97;;;;;;;12.98;100.00;103079.16;2068575;28;20506;-67
2022/11/12 00:03:37;;;;;;;17.20;14.40;;;;;;;12.98;100.00;103077.19;2069845;28;20199;-67
2022/11/12 00:04:37;;;;;;;18.20;14.17;;;;;;;12.79;100.00;103052.41;2071268;28;20276;-67
2022/11/12 00:05:38;;;;;;;17.87;13.77;;;;;;;12.96;100.00;103079.53;2070537;28;20195;-67
2022/11/12 00:06:38;;;;;;;16.93;13.83;;;;;;;12.98;100.00;103088.31;2077718;28;20628;-67
2022/11/12 00:07:39;;;;;;;17.80;14.30;;;;;;;12.95;100.00;103077.91;2078377;28;20186;-67
2022/11/12 00:08:39;;;;;;;18.03;14.23;;;;;;;12.63;100.00;103043.56;2071696;28;20270;-67
2022/11/12 00:09:40;;;;;;;20.00;14.97;;;;;;;12.94;100.00;103086.66;2071307;28;20196;-67
2022/11/12 00:10:40;;;;;;;17.70;14.10;;;;;;;12.96;100.00;103096.25;2070991;28;20435;-67
2022/11/12 00:11:40;;;;;;;16.77;14.23;;;;;;;12.95;100.00;103094.63;2071001;28;20677;-67
2022/11/12 00:12:41;;;;;;;18.43;14.67;;;;;;;12.95;100.00;103104.94;2070324;28;20671;-67
2022/11/12 00:13:42;;;;;;;19.63;15.40;;;;;;;12.91;100.00;103096.59;2070449;28;20229;-67
2022/11/12 00:14:42;;;;;;;16.40;13.67;;;;;;;12.92;100.00;103095.38;2070975;28;20192;-67
2022/11/12 00:15:45;;;;;;;17.90;13.67;;;;;;;12.82;100.00;103078.66;2071129;28;20239;-67
2022/11/12 00:16:45;;;;;;;18.87;14.27;;;;;;;12.91;100.00;103101.38;2070833;28;20192;-67
2022/11/12 00:17:46;;;;;;;19.40;14.23;;;;;;;12.88;100.00;103100.16;2070283;28;20542;-67
2022/11/12 00:18:47;;;;;;;19.80;14.20;;;;;;;12.90;100.00;103100.56;2070751;28;20612;-67
2022/11/12 00:19:48;;;;;;;16.73;13.93;;;;;;;12.94;100.00;103109.72;2070728;28;20188;-67
2022/11/12 00:20:48;;;;;;;16.77;14.10;;;;;;;12.95;100.00;103102.97;2071068;28;20448;-67
2022/11/12 00:21:49;;;;;;;17.60;13.57;;;;;;;12.80;100.00;103072.69;2070939;28;20319;-67
2022/11/12 00:22:49;;;;;;;16.73;13.07;;;;;;;12.97;100.00;103102.63;2070337;28;20181;-67
2022/11/12 00:23:49;;;;;;;16.33;13.57;;;;;;;12.99;100.00;103103.81;2070557;28;20224;-67
2022/11/12 00:24:50;;;;;;;16.10;12.90;;;;;;;13.03;100.00;103109.41;2071684;28;20197;-67
2022/11/12 00:25:58;;;;;;;16.33;12.97;;;;;;;13.05;100.00;103107.84;2070848;28;20200;-67
2022/11/12 00:26:59;;;;;;;19.30;14.27;;;;;;;13.01;100.00;103092.31;2072433;28;20555;-67
2022/11/12 00:28:01;;;;;;;16.40;13.77;;;;;;;12.67;100.00;103049.13;2072158;28;20441;-67
2022/11/12 00:29:02;;;;;;;16.70;13.77;;;;;;;12.35;100.00;103001.66;2072623;28;20322;-67
2022/11/12 00:30:03;;;;;;;18.70;14.37;;;;;;;13.00;100.00;103104.59;2072414;28;20461;-67
2022/11/12 00:31:10;;;;;;;16.53;14.80;;;;;;;13.04;100.00;103099.88;2072388;28;20227;-67
2022/11/12 00:32:11;;;;;;;17.90;14.67;;;;;;;12.97;100.00;103094.28;2072466;28;20448;-67
2022/11/12 00:33:12;;;;;;;16.47;14.30;;;;;;;12.95;100.00;103094.63;2072023;28;20823;-67
2022/11/12 00:34:12;;;;;;;18.03;14.00;;;;;;;12.91;100.00;103107.72;2072831;28;20890;-67
2022/11/12 00:35:13;;;;;;;17.40;15.27;;;;;;;12.90;100.00;103106.13;2072295;28;21635;-67
2022/11/12 00:36:13;;;;;;;16.83;14.23;;;;;;;12.91;100.00;103093.03;2073284;28;20187;-67
2022/11/12 00:37:13;;;;;;;19.53;15.73;;;;;;;12.84;100.00;103095.75;2072376;28;21310;-67
2022/11/12 00:38:14;;;;;;;17.67;15.77;;;;;;;12.90;100.00;103108.09;2072526;28;20186;-67
2022/11/12 00:39:14;;;;;;;18.63;15.23;;;;;;;12.95;100.00;103094.63;2072337;28;20193;-67
2022/11/12 00:40:15;;;;;;;18.50;15.73;;;;;;;12.72;100.00;103051.56;2072129;28;20192;-67
2022/11/12 00:41:15;;;;;;;20.30;16.17;;;;;;;12.97;100.00;103094.28;2072168;28;20188;-67
2022/11/12 00:42:16;;;;;;;16.97;14.53;;;;;;;13.01;100.00;103089.53;2072042;28;20568;-67
2022/11/12 00:43:16;;;;;;;17.10;14.57;;;;;;;13.06;100.00;103091.94;2071984;28;20271;-67
2022/11/12 00:44:16;;;;;;;19.33;15.30;;;;;;;13.02;100.00;103091.13;2073273;28;20188;-67
2022/11/12 00:45:18;;;;;;;19.17;15.67;;;;;;;13.00;100.00;103085.13;2072174;28;20228;-67
2022/11/12 00:46:19;;;;;;;17.83;14.40;;;;;;;13.09;100.00;103094.72;2072627;28;20204;-67
2022/11/12 00:47:19;;;;;;;19.23;15.27;;;;;;;13.10;100.00;103087.97;2072615;28;20444;-67
2022/11/12 00:48:20;;;;;;;17.67;15.50;;;;;;;13.13;100.00;103094.75;2071620;28;20203;-67
2022/11/12 00:49:21;;;;;;;20.87;15.63;;;;;;;12.32;100.00;102960.72;2071879;28;20686;-67
2022/11/12 00:50:22;;;;;;;18.77;15.50;;;;;;;13.19;100.00;103093.19;2072119;28;20550;-67
2022/11/12 00:51:23;;;;;;;18.87;15.63;;;;;;;13.17;100.00;103090.78;2072364;28;20419;-67
2022/11/12 00:52:23;;;;;;;17.20;14.97;;;;;;;13.20;100.00;103084.44;2072842;28;20428;-67
2022/11/12 00:53:23;;;;;;;18.30;14.70;;;;;;;13.18;100.00;103083.25;2072064;28;20318;-67
2022/11/12 00:54:24;;;;;;;17.60;14.87;;;;;;;13.03;100.00;103067.66;2072316;28;20587;-67
2022/11/12 00:55:24;;;;;;;18.13;15.00;;;;;;;13.01;100.00;103073.59;2072181;28;20198;-67
2022/11/12 00:56:25;;;;;;;18.00;14.60;;;;;;;13.06;100.00;103087.16;2072641;28;20225;-67
2022/11/12 00:57:25;;;;;;;18.87;13.90;;;;;;;13.02;100.00;103089.13;2072243;28;20549;-67
2022/11/12 00:58:28;;;;;;;15.83;14.13;;;;;;;13.03;100.00;103089.94;2072882;28;20213;-67
2022/11/12 00:59:29;;;;;;;15.93;13.50;;;;;;;12.98;100.00;103088.31;2071970;28;20248;-67
2022/11/12 01:00:29;;;;;;;19.03;13.90;;;;;;;12.95;100.00;103097.41;2072090;28;20513;-67
2022/11/12 01:01:30;;;;;;;18.93;14.17;;;;;;;13.01;100.00;103090.31;2072820;28;20283;-67
2022/11/12 01:02:30;;;;;;;17.23;14.23;;;;;;;13.02;100.00;103097.47;2071113;28;20205;-67
2022/11/12 01:03:30;;;;;;;16.47;14.10;;;;;;;13.05;100.00;103099.47;2071958;28;20189;-67
2022/11/12 01:04:32;;;;;;;17.33;14.50;;;;;;;12.95;100.00;103088.25;2072397;28;20201;-67
2022/11/12 01:05:33;;;;;;;17.40;14.10;;;;;;;13.00;100.00;103101.81;2071769;28;20197;-67
2022/11/12 01:06:34;;;;;;;16.93;14.50;;;;;;;13.06;100.00;103095.50;2072297;28;20456;-67
2022/11/12 01:07:34;;;;;;;16.67;14.53;;;;;;;13.08;100.00;103103.47;2072242;28;20191;-67
2022/11/12 01:08:35;;;;;;;17.27;13.97;;;;;;;12.49;100.00;103023.19;2072205;28;20295;-67
2022/11/12 01:09:35;;;;;;;17.60;13.90;;;;;;;12.89;100.00;103085.06;2072802;28;20216;-67
2022/11/12 01:10:36;;;;;;;15.10;13.50;;;;;;;12.88;100.00;103097.38;2072591;28;20250;-67
2022/11/12 01:11:39;;;;;;;17.63;13.03;;;;;;;12.89;100.00;103096.19;2072299;28;20536;-67
2022/11/12 01:12:39;;;;;;;15.93;14.23;;;;;;;12.60;100.00;103035.97;2071873;28;20197;-67
2022/11/12 01:13:43;;;;;;;18.73;14.70;;;;;;;13.05;100.00;103087.53;2072071;28;20469;-67
2022/11/12 01:14:43;;;;;;;17.00;13.97;;;;;;;13.13;100.00;103100.31;2072373;28;20204;-67
2022/11/12 01:15:43;;;;;;;16.03;14.23;;;;;;;13.13;100.00;103097.53;2071893;28;20435;-67
2022/11/12 01:16:44;;;;;;;16.27;13.03;;;;;;;13.20;100.00;103103.13;2071669;28;20666;-67
2022/11/12 01:17:44;;;;;;;16.30;13.07;;;;;;;13.24;100.00;103095.59;2072150;28;20593;-67
2022/11/12 01:18:46;;;;;;;15.97;12.73;;;;;;;12.91;100.00;103052.06;2072848;28;20186;-67
2022/11/12 01:19:46;;;;;;;15.37;13.23;;;;;;;13.26;100.00;103094.00;2072246;28;20197;-67
2022/11/12 01:20:47;;;;;;;16.03;13.27;;;;;;;13.18;100.00;103105.50;2071055;28;20428;-67
2022/11/12 01:21:47;;;;;;;16.80;13.57;;;;;;;13.13;100.00;103100.31;2071342;28;20189;-67
2022/11/12 01:22:48;;;;;;;16.10;13.33;;;;;;;13.07;100.00;103090.75;2071650;28;20213;-67
2022/11/12 01:23:48;;;;;;;17.23;13.33;;;;;;;13.14;100.00;103099.13;2070889;28;20206;-67
2022/11/12 01:24:48;;;;;;;17.03;13.57;;;;;;;13.11;100.00;103097.91;2072262;28;20177;-67
2022/11/12 01:25:49;;;;;;;16.00;13.77;;;;;;;13.16;100.00;103094.75;2072032;28;20623;-67
2022/11/12 01:26:49;;;;;;;15.63;13.10;;;;;;;12.16;100.00;102917.72;2072717;28;20316;-67
2022/11/12 01:27:50;;;;;;;16.67;13.27;;;;;;;13.21;100.00;103082.47;2072560;28;20199;-67
2022/11/12 01:28:50;;;;;;;16.50;13.20;;;;;;;12.38;100.00;102948.03;2071715;28;20214;-67
2022/11/12 01:29:51;;;;;;;16.73;13.80;;;;;;;13.22;100.00;103078.50;2072348;28;20207;-67
2022/11/12 01:30:51;;;;;;;14.90;13.27;;;;;;;13.28;100.00;103077.69;2071172;28;20596;-67
2022/11/12 01:31:51;;;;;;;14.73;13.13;;;;;;;13.32;100.00;103075.72;2071722;28;20208;-67
2022/11/12 01:32:52;;;;;;;15.80;13.00;;;;;;;13.33;100.00;103085.66;2071757;28;20629;-67
2022/11/12 01:33:55;;;;;;;17.30;13.50;;;;;;;13.35;100.00;103088.88;2071930;28;20253;-67
2022/11/12 01:34:55;;;;;;;17.67;13.20;;;;;;;13.17;100.00;103076.06;2072147;28;20255;-67
2022/11/12 01:35:58;;;;;;;16.30;13.47;;;;;;;13.28;100.00;103096.41;2072001;28;20446;-67
2022/11/12 01:36:58;;;;;;;15.07;13.47;;;;;;;12.98;100.00;103045.75;2071935;28;20330;-67
2022/11/12 01:37:59;;;;;;;14.50;12.70;;;;;;;13.30;100.00;103091.22;2071406;28;20506;-67
2022/11/12 01:39:00;;;;;;;16.57;13.23;;;;;;;13.22;100.00;103086.84;2072031;28;20331;-67
2022/11/12 01:40:00;;;;;;;15.73;12.77;;;;;;;13.00;100.00;103083.16;2079609;28;20204;-67
2022/11/12 01:41:01;;;;;;;17.90;14.00;;;;;;;12.51;100.00;102990.22;2079336;28;20603;-67
2022/11/12 01:42:01;;;;;;;15.33;12.60;;;;;;;13.22;100.00;103101.53;2071602;28;20193;-67
2022/11/12 01:43:02;;;;;;;13.43;11.67;;;;;;;12.26;100.00;102944.78;2072149;28;20212;-67
2022/11/12 01:44:05;;;;;;;15.10;12.43;;;;;;;13.24;100.00;103099.19;2071797;28;20193;-67
2022/11/12 01:45:15;;;;;;;12.63;11.33;;;;;;;12.35;100.00;102957.16;2071978;28;20201;-67
2022/11/12 01:46:25;;;;;;;13.00;11.67;;;;;;;13.23;100.00;103088.44;2071640;28;20645;-67
2022/11/12 01:47:33;;;;;;;12.90;10.30;;;;;;;13.17;100.00;103093.56;2072021;28;20810;-67
2022/11/12 01:48:38;;;;;;;12.20;10.87;;;;;;;13.21;100.00;103097.16;2072371;28;20431;-67
2022/11/12 01:49:58;;;;;;;11.67;9.70;;;;;;;13.24;100.00;103095.59;2071839;28;20444;-67
2022/11/12 01:51:02;;;;;;;10.90;9.20;;;;;;;13.26;100.00;103087.63;2071252;28;20479;-67
2022/11/12 01:52:16;;;;;;;10.60;9.10;;;;;;;12.55;100.00;102983.50;2072214;28;20522;-67
2022/11/12 01:53:18;;;;;;;8.13;7.13;;;;;;;13.28;100.00;103099.97;2071885;28;20439;-67
2022/11/12 01:54:21;;;;;;;6.63;5.93;;;;;;;12.58;100.00;102991.06;2072321;28;20507;-67
2022/11/12 01:55:26;;;;;;;7.93;6.30;;;;;;;13.22;100.00;103104.31;2071658;28;20520;-67
2022/11/12 01:56:29;;;;;;;6.57;5.77;;;;;;;13.13;100.00;103098.34;2071954;28;20444;-67
2022/11/12 01:57:37;;;;;;;7.53;6.73;;;;;;;13.13;100.00;103087.19;2071803;28;20451;-67
2022/11/12 01:58:39;;;;;;;7.27;5.90;;;;;;;13.26;100.00;103109.91;2071747;28;20433;-67
2022/11/12 01:59:44;;;;;;;7.20;6.50;;;;;;;13.29;100.00;103109.13;2071924;28;20506;-67
2022/11/12 02:00:45;;;;;;;7.40;6.40;;;;;;;12.49;100.00;102998.16;2071465;28;20492;-67
2022/11/12 02:01:46;;;;;;;7.27;6.30;;;;;;;13.18;100.00;103095.19;2072200;28;20421;-67
2022/11/12 02:02:53;;;;;;;7.23;6.00;;;;;;;13.30;100.00;103110.72;2071196;28;20458;-67
2022/11/12 02:03:54;;;;;;;6.17;5.57;;;;;;;13.29;100.00;103092.44;2071095;28;20658;-67
2022/11/12 02:04:55;;;;;;;6.87;6.17;;;;;;;13.35;100.00;103104.78;2072567;28;20427;-67
2022/11/12 02:06:01;;;;;;;8.13;6.17;;;;;;;13.32;100.00;103102.78;2071874;28;20497;-67
2022/11/12 02:07:02;;;;;;;6.00;5.40;;;;;;;13.26;100.00;103101.56;2071417;28;20438;-67
2022/11/12 02:08:04;;;;;;;7.20;5.60;;;;;;;13.25;100.00;103100.78;2071866;28;20529;-67
2022/11/12 02:09:05;;;;;;;6.20;5.40;;;;;;;13.22;100.00;103092.41;2071686;28;20197;-67
2022/11/12 02:10:07;;;;;;;5.77;5.17;;;;;;;13.17;100.00;103085.22;2071837;28;20440;-67
2022/11/12 02:11:10;;;;;;;6.50;5.40;;;;;;;13.07;100.00;103065.69;2071487;28;20205;-67
2022/11/12 02:13:56;;;;;;;6.30;5.33;;;;;;;13.24;100.00;103107.53;2071730;28;20937;-67
2022/11/12 02:14:50;;;;;;;6.30;5.53;;;;;;;13.23;100.00;103119.06;2071877;28;20423;-67
2022/11/12 02:15:51;;;;;;;6.73;5.87;;;;;;;13.13;100.00;103112.25;2071946;28;20436;-67
2022/11/12 02:16:51;;;;;;;6.83;5.70;;;;;;;13.16;100.00;103116.25;2071510;28;20336;-67
2022/11/12 02:17:52;;;;;;;6.90;5.67;;;;;;;12.21;100.00;102965.44;2072092;28;20432;-67
2022/11/12 02:18:52;;;;;;;6.33;5.50;;;;;;;13.17;100.00;103118.63;2070829;28;20193;-67
2022/11/12 02:19:53;;;;;;;6.30;5.37;;;;;;;12.97;100.00;103088.69;2072260;28;20254;-67
2022/11/12 02:20:56;;;;;;;6.47;5.43;;;;;;;13.12;100.00;103105.06;2071704;28;20220;-67
2022/11/12 02:21:57;;;;;;;7.00;6.00;;;;;;;13.14;100.00;103108.28;2071856;28;20196;-67
2022/11/12 02:22:57;;;;;;;7.13;6.00;;;;;;;13.11;100.00;103108.28;2078831;28;20442;-67
2022/11/12 02:24:02;;;;;;;6.43;5.77;;;;;;;12.98;100.00;103104.22;2078679;28;20797;-67
2022/11/12 02:25:03;;;;;;;6.60;5.83;;;;;;;12.91;100.00;103107.72;2071339;28;20276;-67
2022/11/12 02:26:04;;;;;;;6.43;5.73;;;;;;;12.82;100.00;103107.25;2071693;28;20943;-67
2022/11/12 02:27:05;;;;;;;6.97;6.13;;;;;;;12.85;100.00;103112.06;2071142;28;20189;-68
2022/11/12 02:28:07;;;;;;;6.40;5.80;;;;;;;12.87;100.00;103106.09;2071701;28;20577;-67
2022/11/12 02:29:08;;;;;;;8.20;6.37;;;;;;;12.86;100.00;103116.44;2072526;28;20226;-67
2022/11/12 02:30:08;;;;;;;7.83;6.73;;;;;;;12.91;100.00;103115.28;2070957;28;20981;-67
2022/11/12 02:31:09;;;;;;;6.83;5.97;;;;;;;11.78;100.00;102935.72;2071559;28;20197;-67
2022/11/12 02:32:09;;;;;;;8.27;6.57;;;;;;;12.98;100.00;103110.59;2071462;28;20555;-67
2022/11/12 02:33:10;;;;;;;7.73;6.37;;;;;;;12.98;100.00;103113.38;2071357;28;20364;-67
2022/11/12 02:34:10;;;;;;;6.80;6.13;;;;;;;12.79;100.00;103087.75;2071526;28;20203;-67
2022/11/12 02:35:11;;;;;;;8.30;6.40;;;;;;;12.90;100.00;103144.28;2070768;28;20253;-67
2022/11/12 02:36:11;;;;;;;8.30;6.00;;;;;;;12.89;100.00;103114.84;2071546;28;20183;-68
2022/11/12 02:37:12;;;;;;;6.87;6.03;;;;;;;12.84;100.00;103113.25;2071885;28;20196;-68
2022/11/12 02:38:12;;;;;;;8.17;6.30;;;;;;;12.83;100.00;103110.84;2071978;28;20263;-67
2022/11/12 02:39:12;;;;;;;6.87;6.17;;;;;;;12.38;100.00;103037.03;2071458;28;20211;-67
2022/11/12 02:40:13;;;;;;;6.90;6.13;;;;;;;12.91;100.00;103113.28;2071808;28;20592;-67
2022/11/12 02:41:13;;;;;;;7.53;6.60;;;;;;;12.94;100.00;103100.56;2071556;28;20204;-67
2022/11/12 02:42:14;;;;;;;7.63;6.50;;;;;;;12.96;100.00;103101.03;2070983;28;20218;-67
2022/11/12 02:43:14;;;;;;;7.83;6.50;;;;;;;12.75;100.00;103078.63;2070634;28;20254;-67
2022/11/12 02:44:15;;;;;;;7.67;6.50;;;;;;;12.94;100.00;103120.06;2071976;28;20887;-67
2022/11/12 02:45:16;;;;;;;8.60;7.30;;;;;;;12.28;100.00;103012.72;2072038;28;20222;-67
2022/11/12 02:46:16;;;;;;;8.57;6.83;;;;;;;12.94;100.00;103120.88;2071354;28;20199;-67
2022/11/12 02:47:17;;;;;;;10.90;7.00;;;;;;;12.96;100.00;103117.72;2070588;28;20468;-67
2022/11/12 02:48:17;;;;;;;7.87;6.60;;;;;;;12.97;100.00;103116.53;2071849;28;20201;-67
2022/11/12 02:49:18;;;;;;;9.23;6.70;;;;;;;12.87;100.00;103101.31;2078923;28;20324;-67
2022/11/12 02:50:18;;;;;;;9.73;7.23;;;;;;;12.99;100.00;103116.94;2078874;28;20259;-67
2022/11/12 02:51:19;;;;;;;8.73;6.80;;;;;;;13.04;100.00;103124.91;2071692;28;20194;-67
2022/11/12 02:52:19;;;;;;;8.33;6.87;;;;;;;13.02;100.00;103116.16;2071325;28;20591;-67
2022/11/12 02:53:20;;;;;;;9.10;6.57;;;;;;;13.10;100.00;103123.34;2071438;28;20268;-67
2022/11/12 02:54:20;;;;;;;8.33;6.37;;;;;;;12.07;100.00;102970.88;2071545;28;20186;-67
2022/11/12 02:55:20;;;;;;;7.60;6.70;;;;;;;13.00;100.00;103119.34;2071240;28;20235;-67
2022/11/12 02:56:21;;;;;;;8.53;7.33;;;;;;;12.89;100.00;103121.22;2071722;28;20548;-67
2022/11/12 02:57:21;;;;;;;11.33;7.40;;;;;;;12.82;100.00;103121.16;2070845;28;20193;-67
2022/11/12 02:58:22;;;;;;;9.40;6.77;;;;;;;12.88;100.00;103124.41;2071684;28;20329;-67
2022/11/12 02:59:22;;;;;;;8.43;7.10;;;;;;;12.81;100.00;103113.22;2070982;28;20187;-67
2022/11/12 03:00:23;;;;;;;8.67;6.90;;;;;;;11.91;100.00;102972.34;2071310;28;20185;-67
2022/11/12 03:01:23;;;;;;;9.07;7.17;;;;;;;12.22;100.00;103019.84;2071835;28;20198;-67
2022/11/12 03:02:24;;;;;;;8.23;6.93;;;;;;;12.50;100.00;103063.75;2070394;28;20666;-67
2022/11/12 03:03:24;;;;;;;8.37;7.07;;;;;;;12.60;100.00;103072.16;2071082;28;20564;-67
2022/11/12 03:04:24;;;;;;;7.73;6.83;;;;;;;12.99;100.00;103133.63;2071635;28;20200;-67
2022/11/12 03:05:29;;;;;;;8.20;6.70;;;;;;;12.87;100.00;103108.88;2071434;28;20411;-67
2022/11/12 03:06:29;;;;;;;9.93;6.80;;;;;;;13.00;100.00;103129.66;2071606;28;20477;-67
2022/11/12 03:07:30;;;;;;;8.03;6.87;;;;;;;12.01;100.00;102977.19;2071167;28;20431;-67
2022/11/12 03:08:31;;;;;;;7.93;6.70;;;;;;;12.90;100.00;103127.59;2071392;28;20188;-67
2022/11/12 03:09:31;;;;;;;8.40;7.20;;;;;;;12.85;100.00;103141.84;2072002;28;20195;-67
2022/11/12 03:10:32;;;;;;;8.53;7.60;;;;;;;12.85;100.00;103144.63;2071294;28;20204;-67
2022/11/12 03:11:33;;;;;;;9.80;7.50;;;;;;;12.85;100.00;103137.09;2071250;28;20196;-67
2022/11/12 03:12:33;;;;;;;9.90;7.30;;;;;;;12.84;100.00;103151.41;2070892;28;20448;-67
2022/11/12 03:13:34;;;;;;;9.30;7.93;;;;;;;12.63;100.00;103143.72;2070543;28;20238;-67
2022/11/12 03:14:34;;;;;;;8.17;6.90;;;;;;;12.80;100.00;103156.94;2071434;28;20296;-67
2022/11/12 03:15:35;;;;;;;8.17;7.07;;;;;;;12.82;100.00;103156.56;2071252;28;20212;-67
2022/11/12 03:16:35;;;;;;;9.53;7.30;;;;;;;12.84;100.00;103151.41;2071341;28;20183;-67
2022/11/12 03:17:36;;;;;;;9.10;7.20;;;;;;;12.86;100.00;103151.84;2071819;28;20181;-67
2022/11/12 03:18:36;;;;;;;7.60;6.77;;;;;;;12.03;100.00;103019.28;2071587;28;20200;-67
2022/11/12 03:19:37;;;;;;;7.93;7.13;;;;;;;12.82;100.00;103151.00;2070647;28;20198;-67
2022/11/12 03:20:37;;;;;;;9.80;7.20;;;;;;;12.85;100.00;103153.00;2070334;28;20628;-67
2022/11/12 03:21:38;;;;;;;7.73;6.80;;;;;;;12.85;100.00;103164.13;2071379;28;20200;-67
2022/11/12 03:22:39;;;;;;;9.73;6.80;;;;;;;12.85;100.00;103161.34;2070658;28;20618;-67
2022/11/12 03:23:39;;;;;;;8.43;6.83;;;;;;;12.83;100.00;103155.38;2070814;28;20188;-67
2022/11/12 03:24:40;;;;;;;7.77;6.97;;;;;;;12.81;100.00;103152.19;2070957;28;20451;-67
2022/11/12 03:25:40;;;;;;;7.97;7.17;;;;;;;12.79;100.00;103157.31;2071823;28;20192;-67
2022/11/12 03:26:40;;;;;;;8.73;7.20;;;;;;;12.74;100.00;103152.94;2071105;28;20661;-67
2022/11/12 03:27:41;;;;;;;8.60;7.70;;;;;;;12.73;100.00;103161.66;2071480;28;20580;-67
2022/11/12 03:28:41;;;;;;;10.17;7.50;;;;;;;12.72;100.00;103160.88;2070521;28;20220;-67
2022/11/12 03:29:42;;;;;;;8.13;7.23;;;;;;;12.75;100.00;103154.53;2070450;28;20195;-67
2022/11/12 03:30:43;;;;;;;10.87;7.20;;;;;;;12.78;100.00;103153.75;2071099;28;20196;-67
2022/11/12 03:31:43;;;;;;;10.43;7.90;;;;;;;12.71;100.00;103150.91;2071281;28;20179;-67
2022/11/12 03:32:44;;;;;;;8.87;7.40;;;;;;;12.72;100.00;103152.53;2070749;28;20429;-67
2022/11/12 03:33:44;;;;;;;8.60;7.27;;;;;;;12.76;100.00;103149.78;2071414;28;20208;-67
2022/11/12 03:34:45;;;;;;;9.37;8.27;;;;;;;12.71;100.00;103153.69;2071529;28;20668;-67
2022/11/12 03:35:45;;;;;;;8.87;7.97;;;;;;;12.41;100.00;103102.22;2071178;28;20191;-67
2022/11/12 03:36:45;;;;;;;9.00;7.80;;;;;;;12.77;100.00;103141.03;2070276;28;20189;-67
2022/11/12 03:37:46;;;;;;;10.10;8.47;;;;;;;12.73;100.00;103139.41;2071486;28;20193;-67
2022/11/12 03:38:46;;;;;;;9.07;8.10;;;;;;;12.75;100.00;103145.41;2070989;28;20729;-67
2022/11/12 03:39:47;;;;;;;9.77;8.47;;;;;;;12.74;100.00;103154.91;2071064;28;20184;-67
2022/11/12 03:40:48;;;;;;;11.07;8.53;;;;;;;12.65;100.00;103148.91;2070719;28;20183;-67
2022/11/12 03:41:48;;;;;;;12.17;8.30;;;;;;;12.65;100.00;103146.13;2071899;28;20233;-67
2022/11/12 03:42:50;;;;;;;9.30;8.30;;;;;;;12.67;100.00;103141.75;2070481;28;20192;-67
2022/11/12 03:43:51;;;;;;;9.77;8.63;;;;;;;12.72;100.00;103149.75;2071107;28;20555;-67
2022/11/12 03:44:51;;;;;;;10.33;8.87;;;;;;;12.74;100.00;103155.72;2070452;28;20462;-67
2022/11/12 03:45:52;;;;;;;10.93;8.37;;;;;;;12.66;100.00;103153.28;2070475;28;20268;-67
2022/11/12 03:46:52;;;;;;;11.63;8.90;;;;;;;12.61;100.00;103148.84;2071010;28;20204;-67
2022/11/12 03:47:55;;;;;;;10.27;8.73;;;;;;;12.68;100.00;103162.03;2071262;28;20207;-67
2022/11/12 03:48:55;;;;;;;10.57;8.77;;;;;;;12.64;100.00;103152.84;2070936;28;20188;-67
2022/11/12 03:49:56;;;;;;;9.97;8.07;;;;;;;12.61;100.00;103148.06;2071807;28;20439;-67
2022/11/12 03:50:57;;;;;;;9.90;8.63;;;;;;;12.67;100.00;103160.44;2070958;28;20225;-67
2022/11/12 03:51:58;;;;;;;10.33;9.07;;;;;;;12.72;100.00;103163.66;2071411;28;20676;-67
2022/11/12 03:52:59;;;;;;;11.00;8.33;;;;;;;12.76;100.00;103164.47;2070519;28;20824;-67
2022/11/12 03:53:59;;;;;;;12.93;8.80;;;;;;;12.77;100.00;103152.16;2070216;28;20300;-67
2022/11/12 03:54:59;;;;;;;11.10;8.77;;;;;;;12.78;100.00;103148.19;2070608;28;20567;-67
2022/11/12 03:56:00;;;;;;;11.47;8.50;;;;;;;12.84;100.00;103151.41;2070902;28;20206;-67
2022/11/12 03:57:00;;;;;;;10.30;8.73;;;;;;;12.83;100.00;103152.59;2071058;28;20509;-67
2022/11/12 03:58:01;;;;;;;9.97;8.63;;;;;;;12.77;100.00;103137.44;2070953;28;20191;-67
2022/11/12 03:59:01;;;;;;;9.90;8.90;;;;;;;12.82;100.00;103145.44;2071615;28;20200;-67
2022/11/12 04:00:05;;;;;;;11.10;9.50;;;;;;;12.76;100.00;103142.19;2071125;28;20200;-67
2022/11/12 04:01:05;;;;;;;10.37;8.53;;;;;;;12.81;100.00;103146.63;2069520;28;20199;-67
2022/11/12 04:02:06;;;;;;;9.43;8.43;;;;;;;12.80;100.00;103143.03;2069967;28;20451;-67
2022/11/12 04:03:06;;;;;;;9.90;8.90;;;;;;;12.85;100.00;103150.22;2070281;28;20203;-67
2022/11/12 04:04:09;;;;;;;9.93;8.93;;;;;;;12.87;100.00;103145.84;2070934;28;20291;-67
2022/11/12 04:09:34;;;;;;;11.30;8.07;;;;;;;12.84;100.00;103149.44;2069947;28;20388;-67
2022/11/12 04:10:34;;;;;;;10.17;8.27;;;;;;;12.83;100.00;103147.84;2071669;28;20506;-67
2022/11/12 04:11:35;;;;;;;11.43;8.50;;;;;;;12.84;100.00;103148.63;2071098;28;20197;-67
2022/11/12 04:13:54;;;;;;;10.70;9.13;;;;;;;12.80;100.00;103153.38;2070511;28;20224;-67
2022/11/12 04:14:55;;;;;;;10.27;9.00;;;;;;;12.81;100.00;103158.53;2070834;28;20949;-67
2022/11/12 04:21:54;;;;;;;12.63;9.43;;;;;;;12.74;100.00;103152.94;2070698;28;20443;-67
2022/11/12 04:22:54;;;;;;;11.40;9.60;;;;;;;12.75;100.00;103157.31;2069506;28;20455;-67
2022/11/12 04:23:55;;;;;;;11.23;10.13;;;;;;;12.74;100.00;103157.69;2069615;28;20458;-67
2022/11/12 04:26:23;;;;;;;11.93;9.60;;;;;;;12.81;100.00;103155.75;2071345;28;20612;-67
2022/11/12 04:27:32;;;;;;;12.17;9.63;;;;;;;12.81;100.00;103163.31;2070916;28;21015;-67
2022/11/12 04:28:32;;;;;;;11.00;8.87;;;;;;;12.85;100.00;103151.03;2071078;28;20437;-67
2022/11/12 04:30:52;;;;;;;10.27;9.13;;;;;;;12.77;100.00;103140.22;2070194;28;20654;-67
2022/11/12 04:31:53;;;;;;;10.33;8.87;;;;;;;12.87;100.00;103150.63;2070950;28;20911;-67
2022/11/12 04:32:55;;;;;;;10.33;8.60;;;;;;;12.70;100.00;103140.97;2070734;28;20200;-67
2022/11/12 04:34:27;;;;;;;10.30;9.20;;;;;;;12.75;100.00;103126.69;2070420;28;20199;-67
2022/11/12 04:35:17;;;;;;;11.07;9.63;;;;;;;12.90;100.00;103153.44;2070109;28;20452;-67
2022/11/12 04:36:18;;;;;;;10.30;9.20;;;;;;;12.88;100.00;103146.66;2070852;28;20517;-67
2022/11/12 04:37:20;;;;;;;12.03;9.73;;;;;;;12.73;100.00;103128.28;2070686;28;20435;-67
2022/11/12 04:38:20;;;;;;;11.07;9.37;;;;;;;12.87;100.00;103148.63;2070572;28;20270;-67
2022/11/12 04:39:21;;;;;;;11.87;9.17;;;;;;;12.90;100.00;103147.06;2071023;28;20680;-67
2022/11/12 04:45:44;;;;;;;11.93;10.27;;;;;;;12.83;100.00;103147.03;2070129;28;20431;-67
2022/11/12 04:46:44;;;;;;;11.10;9.90;;;;;;;12.81;100.00;103150.19;2070742;28;20454;-67
2022/11/12 04:47:45;;;;;;;12.87;10.10;;;;;;;12.82;100.00;103148.22;2071129;28;20428;-67
2022/11/12 04:48:45;;;;;;;13.07;9.87;;;;;;;12.83;100.00;103147.84;2070022;28;20201;-67
2022/11/12 04:49:46;;;;;;;10.53;9.40;;;;;;;12.81;100.00;103152.97;2070097;28;20182;-67
2022/11/12 04:50:51;;;;;;;11.07;9.67;;;;;;;12.08;100.00;103043.94;2071287;28;20237;-67
2022/11/12 04:52:06;;;;;;;11.10;9.53;;;;;;;12.78;100.00;103145.41;2070285;28;20304;-67
2022/11/12 04:53:07;;;;;;;10.30;9.00;;;;;;;11.82;100.00;102988.53;2077581;28;20423;-67
2022/11/12 04:54:07;;;;;;;11.17;10.00;;;;;;;12.87;100.00;103148.63;2078555;28;20540;-67
2022/11/12 04:55:09;;;;;;;10.93;8.97;;;;;;;12.90;100.00;103155.41;2070701;28;20607;-67
2022/11/12 04:56:10;;;;;;;11.00;9.80;;;;;;;12.84;100.00;103132.72;2070782;28;20338;-67
2022/11/12 04:57:10;;;;;;;11.20;9.77;;;;;;;12.90;100.00;103150.66;2070754;28;21012;-67
2022/11/12 04:58:11;;;;;;;10.70;9.60;;;;;;;12.91;100.00;103146.69;2070363;28;20291;-67
2022/11/12 04:59:11;;;;;;;10.70;9.53;;;;;;;12.32;100.00;103044.16;2070673;28;20569;-67
2022/11/12 05:00:12;;;;;;;12.30;9.90;;;;;;;12.85;100.00;103136.28;2070854;28;20518;-67